sensor_id;sensor_type;location;lat;lon;timestamp;pressure;altitude;pressure_sealevel;temperature;humidity
13434;BME280;6789;47.678;9.158;2023-03-19T00:01:07;96504.34;;;11.24;77.91
13434;BME280;6789;47.678;9.158;2023-03-19T00:05:59;96508.56;;;11.25;77.24
13434;BME280;6789;47.678;9.158;2023-03-19T00:10:51;96516.31;;;11.20;76.89
13434;BME280;6789;47.678;9.158;2023-03-19T00:15:44;96517.81;;;11.16;77.53
13434;BME280;6789;47.678;9.158;2023-03-19T00:20:37;96510.19;;;11.14;78.37
13434;BME280;6789;47.678;9.158;2023-03-19T00:25:43;96518.59;;;11.16;77.29
13434;BME280;6789;47.678;9.158;2023-03-19T00:30:41;96527.91;;;11.35;75.54
13434;BME280;6789;47.678;9.158;2023-03-19T00:35:50;96528.13;;;11.45;74.83
13434;BME280;6789;47.678;9.158;2023-03-19T00:40:57;96530.66;;;11.68;73.84
13434;BME280;6789;47.678;9.158;2023-03-19T00:46:05;96532.25;;;11.69;73.47
13434;BME280;6789;47.678;9.158;2023-03-19T00:51:11;96535.22;;;11.72;72.33
13434;BME280;6789;47.678;9.158;2023-03-19T00:56:18;96541.66;;;11.81;72.26
13434;BME280;6789;47.678;9.158;2023-03-19T01:01:14;96554.50;;;11.94;71.89
13434;BME280;6789;47.678;9.158;2023-03-19T01:06:20;96546.97;;;11.98;71.26
13434;BME280;6789;47.678;9.158;2023-03-19T01:11:16;96556.75;;;12.02;71.40
13434;BME280;6789;47.678;9.158;2023-03-19T01:16:13;96557.47;;;11.98;72.45
13434;BME280;6789;47.678;9.158;2023-03-19T01:21:12;96564.41;;;11.87;73.64
13434;BME280;6789;47.678;9.158;2023-03-19T01:26:12;96570.16;;;11.73;74.06
13434;BME280;6789;47.678;9.158;2023-03-19T01:31:07;96573.25;;;11.70;74.39
13434;BME280;6789;47.678;9.158;2023-03-19T01:36:13;96577.84;;;11.63;74.82
13434;BME280;6789;47.678;9.158;2023-03-19T01:41:19;96573.06;;;11.60;74.99
13434;BME280;6789;47.678;9.158;2023-03-19T01:51:33;96584.63;;;11.36;79.96
13434;BME280;6789;47.678;9.158;2023-03-19T01:56:43;96587.25;;;11.36;78.67
13434;BME280;6789;47.678;9.158;2023-03-19T02:01:47;96587.25;;;11.36;79.43
13434;BME280;6789;47.678;9.158;2023-03-19T02:06:42;96593.13;;;11.66;75.57
13434;BME280;6789;47.678;9.158;2023-03-19T02:11:36;96591.91;;;11.68;75.09
13434;BME280;6789;47.678;9.158;2023-03-19T02:16:29;96584.03;;;11.57;76.21
13434;BME280;6789;47.678;9.158;2023-03-19T02:21:21;96595.03;;;11.42;76.20
13434;BME280;6789;47.678;9.158;2023-03-19T02:26:17;96600.72;;;11.39;75.50
13434;BME280;6789;47.678;9.158;2023-03-19T02:31:11;96597.91;;;11.30;76.41
13434;BME280;6789;47.678;9.158;2023-03-19T02:36:09;96594.84;;;11.21;77.30
13434;BME280;6789;47.678;9.158;2023-03-19T02:41:17;96598.84;;;11.12;80.58
13434;BME280;6789;47.678;9.158;2023-03-19T02:46:24;96603.75;;;11.09;80.37
13434;BME280;6789;47.678;9.158;2023-03-19T02:51:31;96603.19;;;11.07;80.56
13434;BME280;6789;47.678;9.158;2023-03-19T02:56:22;96611.38;;;11.22;77.08
13434;BME280;6789;47.678;9.158;2023-03-19T03:01:14;96616.53;;;11.28;76.85
13434;BME280;6789;47.678;9.158;2023-03-19T03:06:07;96615.94;;;11.15;78.22
13434;BME280;6789;47.678;9.158;2023-03-19T03:11:03;96619.25;;;11.33;77.51
13434;BME280;6789;47.678;9.158;2023-03-19T03:16:03;96623.81;;;11.38;76.97
13434;BME280;6789;47.678;9.158;2023-03-19T03:21:09;96627.59;;;11.19;77.44
13434;BME280;6789;47.678;9.158;2023-03-19T03:26:02;96628.03;;;11.16;77.21
13434;BME280;6789;47.678;9.158;2023-03-19T03:30:58;96639.03;;;11.13;77.52
13434;BME280;6789;47.678;9.158;2023-03-19T03:35:51;96647.19;;;11.28;75.27
13434;BME280;6789;47.678;9.158;2023-03-19T03:40:43;96658.03;;;11.20;74.71
13434;BME280;6789;47.678;9.158;2023-03-19T03:45:35;96665.91;;;11.20;74.08
13434;BME280;6789;47.678;9.158;2023-03-19T03:50:41;96658.97;;;11.14;74.70
13434;BME280;6789;47.678;9.158;2023-03-19T03:55:48;96670.16;;;11.21;73.18
13434;BME280;6789;47.678;9.158;2023-03-19T04:00:40;96657.59;;;11.23;71.83
13434;BME280;6789;47.678;9.158;2023-03-19T04:05:32;96665.72;;;11.21;71.71
13434;BME280;6789;47.678;9.158;2023-03-19T04:10:24;96675.97;;;11.23;72.64
13434;BME280;6789;47.678;9.158;2023-03-19T04:15:16;96687.50;;;11.33;71.92
13434;BME280;6789;47.678;9.158;2023-03-19T04:20:09;96687.47;;;11.44;71.64
13434;BME280;6789;47.678;9.158;2023-03-19T04:25:01;96680.50;;;11.38;70.93
13434;BME280;6789;47.678;9.158;2023-03-19T04:29:53;96692.41;;;11.52;69.31
13434;BME280;6789;47.678;9.158;2023-03-19T04:34:45;96700.59;;;11.44;70.97
13434;BME280;6789;47.678;9.158;2023-03-19T04:39:37;96694.22;;;11.40;70.04
13434;BME280;6789;47.678;9.158;2023-03-19T04:44:29;96705.31;;;11.42;69.17
13434;BME280;6789;47.678;9.158;2023-03-19T04:49:22;96710.78;;;11.30;71.37
13434;BME280;6789;47.678;9.158;2023-03-19T04:54:15;96713.75;;;11.22;72.12
13434;BME280;6789;47.678;9.158;2023-03-19T04:59:20;96714.75;;;11.21;70.37
13434;BME280;6789;47.678;9.158;2023-03-19T05:04:27;96721.16;;;11.13;71.64
13434;BME280;6789;47.678;9.158;2023-03-19T05:09:19;96724.00;;;11.23;73.54
13434;BME280;6789;47.678;9.158;2023-03-19T05:14:11;96724.59;;;11.37;73.61
13434;BME280;6789;47.678;9.158;2023-03-19T05:19:02;96736.91;;;11.36;76.53
13434;BME280;6789;47.678;9.158;2023-03-19T05:23:54;96742.03;;;11.20;76.48
13434;BME280;6789;47.678;9.158;2023-03-19T05:28:47;96750.00;;;11.02;77.95
13434;BME280;6789;47.678;9.158;2023-03-19T05:33:39;96748.84;;;10.86;78.16
13434;BME280;6789;47.678;9.158;2023-03-19T05:38:31;96750.78;;;10.91;78.79
13434;BME280;6789;47.678;9.158;2023-03-19T05:43:22;96743.03;;;10.84;80.36
13434;BME280;6789;47.678;9.158;2023-03-19T05:48:14;96749.94;;;10.67;80.08
13434;BME280;6789;47.678;9.158;2023-03-19T05:53:06;96740.09;;;10.52;81.72
13434;BME280;6789;47.678;9.158;2023-03-19T05:57:57;96744.91;;;10.37;88.28
13434;BME280;6789;47.678;9.158;2023-03-19T06:02:49;96744.31;;;10.23;87.36
13434;BME280;6789;47.678;9.158;2023-03-19T06:07:43;96753.13;;;10.29;89.15
13434;BME280;6789;47.678;9.158;2023-03-19T06:12:35;96761.66;;;10.36;91.18
13434;BME280;6789;47.678;9.158;2023-03-19T06:17:27;96769.47;;;10.42;92.60
13434;BME280;6789;47.678;9.158;2023-03-19T06:22:19;96769.59;;;10.47;93.37
13434;BME280;6789;47.678;9.158;2023-03-19T06:27:11;96764.69;;;10.51;93.17
13434;BME280;6789;47.678;9.158;2023-03-19T06:32:03;96780.66;;;10.49;93.02
13434;BME280;6789;47.678;9.158;2023-03-19T06:36:55;96773.34;;;10.51;93.50
13434;BME280;6789;47.678;9.158;2023-03-19T06:41:47;96779.13;;;10.60;92.32
13434;BME280;6789;47.678;9.158;2023-03-19T06:46:39;96782.75;;;10.59;93.46
13434;BME280;6789;47.678;9.158;2023-03-19T06:51:31;96786.38;;;10.58;95.17
13434;BME280;6789;47.678;9.158;2023-03-19T06:56:22;96780.91;;;10.59;96.06
13434;BME280;6789;47.678;9.158;2023-03-19T07:01:14;96788.53;;;10.49;92.81
13434;BME280;6789;47.678;9.158;2023-03-19T07:06:07;96779.34;;;10.40;93.31
13434;BME280;6789;47.678;9.158;2023-03-19T07:11:04;96775.97;;;10.51;90.87
13434;BME280;6789;47.678;9.158;2023-03-19T07:15:56;96777.94;;;10.56;88.79
13434;BME280;6789;47.678;9.158;2023-03-19T07:20:48;96782.66;;;10.65;90.87
13434;BME280;6789;47.678;9.158;2023-03-19T07:25:40;96794.78;;;10.77;89.85
13434;BME280;6789;47.678;9.158;2023-03-19T07:30:31;96787.75;;;10.89;89.84
13434;BME280;6789;47.678;9.158;2023-03-19T07:35:24;96784.66;;;10.92;87.79
13434;BME280;6789;47.678;9.158;2023-03-19T07:40:16;96789.47;;;10.95;85.06
13434;BME280;6789;47.678;9.158;2023-03-19T07:45:08;96789.28;;;11.08;85.92
13434;BME280;6789;47.678;9.158;2023-03-19T07:50:00;96794.09;;;11.23;85.77
13434;BME280;6789;47.678;9.158;2023-03-19T07:54:52;96791.94;;;11.42;85.43
13434;BME280;6789;47.678;9.158;2023-03-19T07:59:44;96788.56;;;11.53;83.47
13434;BME280;6789;47.678;9.158;2023-03-19T08:04:37;96789.13;;;11.67;82.61
13434;BME280;6789;47.678;9.158;2023-03-19T08:09:43;96788.53;;;11.76;83.03
13434;BME280;6789;47.678;9.158;2023-03-19T08:14:35;96788.06;;;12.02;82.59
13434;BME280;6789;47.678;9.158;2023-03-19T08:19:27;96787.00;;;12.14;79.72
13434;BME280;6789;47.678;9.158;2023-03-19T08:24:19;96785.00;;;12.33;78.13
13434;BME280;6789;47.678;9.158;2023-03-19T08:29:11;96784.91;;;12.56;74.84
13434;BME280;6789;47.678;9.158;2023-03-19T08:34:03;96792.50;;;12.80;72.65
13434;BME280;6789;47.678;9.158;2023-03-19T08:38:56;96784.50;;;13.03;71.82
13434;BME280;6789;47.678;9.158;2023-03-19T08:44:09;96785.09;;;13.38;68.61
13434;BME280;6789;47.678;9.158;2023-03-19T08:49:01;96794.72;;;13.81;67.45
13434;BME280;6789;47.678;9.158;2023-03-19T08:53:56;96786.44;;;14.11;66.23
13434;BME280;6789;47.678;9.158;2023-03-19T08:59:02;96784.25;;;14.45;65.08
13434;BME280;6789;47.678;9.158;2023-03-19T09:03:54;96780.97;;;14.60;64.04
13434;BME280;6789;47.678;9.158;2023-03-19T09:08:47;96780.31;;;14.74;64.47
13434;BME280;6789;47.678;9.158;2023-03-19T09:13:53;96782.66;;;14.71;62.70
13434;BME280;6789;47.678;9.158;2023-03-19T09:18:44;96779.94;;;15.40;61.31
13434;BME280;6789;47.678;9.158;2023-03-19T09:23:36;96788.25;;;15.99;58.65
13434;BME280;6789;47.678;9.158;2023-03-19T09:28:28;96782.81;;;16.26;57.46
13434;BME280;6789;47.678;9.158;2023-03-19T09:33:20;96783.53;;;16.06;57.32
13434;BME280;6789;47.678;9.158;2023-03-19T09:38:12;96782.25;;;16.19;56.72
13434;BME280;6789;47.678;9.158;2023-03-19T09:53:57;96766.13;;;16.91;55.13
13434;BME280;6789;47.678;9.158;2023-03-19T09:58:51;96762.91;;;16.69;57.70
13434;BME280;6789;47.678;9.158;2023-03-19T10:04:16;96773.81;;;16.93;56.78
13434;BME280;6789;47.678;9.158;2023-03-19T10:20:24;96754.63;;;16.46;57.50
13434;BME280;6789;47.678;9.158;2023-03-19T10:25:25;96750.59;;;16.29;56.85
13434;BME280;6789;47.678;9.158;2023-03-19T10:30:32;96756.94;;;15.81;56.99
13434;BME280;6789;47.678;9.158;2023-03-19T10:35:44;96748.00;;;15.92;59.11
13434;BME280;6789;47.678;9.158;2023-03-19T10:40:50;96743.88;;;16.16;56.66
13434;BME280;6789;47.678;9.158;2023-03-19T10:45:47;96744.00;;;16.41;55.37
13434;BME280;6789;47.678;9.158;2023-03-19T10:50:59;96740.03;;;16.39;54.80
13434;BME280;6789;47.678;9.158;2023-03-19T11:00:59;96733.22;;;16.57;53.54
13434;BME280;6789;47.678;9.158;2023-03-19T11:06:24;96735.63;;;16.64;53.29
13434;BME280;6789;47.678;9.158;2023-03-19T11:16:25;96732.22;;;16.88;52.00
13434;BME280;6789;47.678;9.158;2023-03-19T11:21:31;96728.22;;;16.91;51.87
13434;BME280;6789;47.678;9.158;2023-03-19T11:26:23;96720.81;;;16.83;51.54
13434;BME280;6789;47.678;9.158;2023-03-19T11:31:37;96730.00;;;16.45;51.69
13434;BME280;6789;47.678;9.158;2023-03-19T11:42:51;96717.59;;;16.61;51.28
13434;BME280;6789;47.678;9.158;2023-03-19T11:48:05;96709.66;;;16.61;51.76
13434;BME280;6789;47.678;9.158;2023-03-19T11:53:31;96701.16;;;16.59;50.96
13434;BME280;6789;47.678;9.158;2023-03-19T11:59:07;96695.38;;;17.16;50.63
13434;BME280;6789;47.678;9.158;2023-03-19T12:20:38;96677.91;;;17.45;49.03
13434;BME280;6789;47.678;9.158;2023-03-19T12:25:52;96675.78;;;16.98;49.26
13434;BME280;6789;47.678;9.158;2023-03-19T12:36:25;96669.28;;;16.24;50.96
13434;BME280;6789;47.678;9.158;2023-03-19T12:41:25;96675.63;;;16.23;51.23
13434;BME280;6789;47.678;9.158;2023-03-19T12:46:25;96673.06;;;16.43;50.58
13434;BME280;6789;47.678;9.158;2023-03-19T12:51:39;96672.53;;;16.31;50.61
13434;BME280;6789;47.678;9.158;2023-03-19T12:56:55;96661.97;;;16.46;49.81
13434;BME280;6789;47.678;9.158;2023-03-19T13:07:35;96659.34;;;17.20;49.17
13434;BME280;6789;47.678;9.158;2023-03-19T13:12:34;96653.47;;;17.53;49.21
13434;BME280;6789;47.678;9.158;2023-03-19T13:17:52;96639.81;;;17.94;47.89
13434;BME280;6789;47.678;9.158;2023-03-19T13:22:54;96642.66;;;18.13;46.55
13434;BME280;6789;47.678;9.158;2023-03-19T13:27:53;96644.41;;;17.74;46.70
13434;BME280;6789;47.678;9.158;2023-03-19T13:32:52;96650.34;;;17.12;48.33
13434;BME280;6789;47.678;9.158;2023-03-19T13:58:48;96630.66;;;17.62;47.97
13434;BME280;6789;47.678;9.158;2023-03-19T14:04:32;96629.09;;;17.51;47.95
13434;BME280;6789;47.678;9.158;2023-03-19T14:10:05;96624.84;;;17.55;47.89
13434;BME280;6789;47.678;9.158;2023-03-19T14:15:21;96620.88;;;17.48;48.21
13434;BME280;6789;47.678;9.158;2023-03-19T14:25:19;96632.31;;;17.28;48.63
13434;BME280;6789;47.678;9.158;2023-03-19T14:30:33;96614.78;;;17.42;47.58
13434;BME280;6789;47.678;9.158;2023-03-19T14:35:40;96629.41;;;17.15;47.40
13434;BME280;6789;47.678;9.158;2023-03-19T14:40:51;96621.75;;;16.89;49.13
13434;BME280;6789;47.678;9.158;2023-03-19T14:56:48;96630.75;;;16.68;50.85
13434;BME280;6789;47.678;9.158;2023-03-19T15:01:48;96624.38;;;16.44;51.23
13434;BME280;6789;47.678;9.158;2023-03-19T15:06:54;96631.78;;;16.47;51.68
13434;BME280;6789;47.678;9.158;2023-03-19T15:17:02;96629.59;;;16.24;52.79
13434;BME280;6789;47.678;9.158;2023-03-19T15:22:20;96643.50;;;15.85;53.76
13434;BME280;6789;47.678;9.158;2023-03-19T15:27:26;96642.94;;;15.83;54.95
13434;BME280;6789;47.678;9.158;2023-03-19T15:32:38;96650.47;;;15.50;55.31
13434;BME280;6789;47.678;9.158;2023-03-19T15:37:55;96659.31;;;15.29;54.90
13434;BME280;6789;47.678;9.158;2023-03-19T15:42:51;96670.25;;;15.11;55.62
13434;BME280;6789;47.678;9.158;2023-03-19T15:52:49;96689.97;;;14.94;56.55
13434;BME280;6789;47.678;9.158;2023-03-19T15:57:43;96699.22;;;14.70;58.70
13434;BME280;6789;47.678;9.158;2023-03-19T16:02:40;96708.38;;;14.57;58.62
13434;BME280;6789;47.678;9.158;2023-03-19T16:07:43;96712.50;;;14.27;60.47
13434;BME280;6789;47.678;9.158;2023-03-19T16:12:39;96728.25;;;14.01;62.09
13434;BME280;6789;47.678;9.158;2023-03-19T16:17:34;96735.59;;;13.77;63.99
13434;BME280;6789;47.678;9.158;2023-03-19T16:22:31;96745.28;;;13.72;64.58
13434;BME280;6789;47.678;9.158;2023-03-19T16:27:37;96749.63;;;13.61;65.82
13434;BME280;6789;47.678;9.158;2023-03-19T16:32:31;96759.44;;;13.66;66.47
13434;BME280;6789;47.678;9.158;2023-03-19T16:37:32;96765.31;;;13.35;68.05
13434;BME280;6789;47.678;9.158;2023-03-19T16:47:24;96767.53;;;13.10;72.32
13434;BME280;6789;47.678;9.158;2023-03-19T16:52:22;96777.59;;;12.85;76.23
13434;BME280;6789;47.678;9.158;2023-03-19T16:57:15;96791.69;;;12.52;80.67
13434;BME280;6789;47.678;9.158;2023-03-19T17:02:15;96801.72;;;12.27;85.17
13434;BME280;6789;47.678;9.158;2023-03-19T17:07:09;96818.34;;;12.05;87.00
13434;BME280;6789;47.678;9.158;2023-03-19T17:12:02;96832.41;;;11.76;89.17
13434;BME280;6789;47.678;9.158;2023-03-19T17:16:55;96832.16;;;11.66;90.67
13434;BME280;6789;47.678;9.158;2023-03-19T17:21:54;96848.56;;;11.50;92.29
13434;BME280;6789;47.678;9.158;2023-03-19T17:26:47;96849.25;;;11.45;92.75
13434;BME280;6789;47.678;9.158;2023-03-19T17:31:39;96850.84;;;11.46;92.88
13434;BME280;6789;47.678;9.158;2023-03-19T17:36:32;96860.22;;;11.42;92.72
13434;BME280;6789;47.678;9.158;2023-03-19T17:41:24;96861.69;;;11.38;93.55
13434;BME280;6789;47.678;9.158;2023-03-19T17:46:21;96865.34;;;11.38;93.46
13434;BME280;6789;47.678;9.158;2023-03-19T17:51:15;96865.13;;;11.39;93.17
13434;BME280;6789;47.678;9.158;2023-03-19T17:56:15;96876.88;;;11.37;93.12
13434;BME280;6789;47.678;9.158;2023-03-19T18:01:26;96872.66;;;11.36;93.53
13434;BME280;6789;47.678;9.158;2023-03-19T18:06:22;96877.31;;;11.34;93.25
13434;BME280;6789;47.678;9.158;2023-03-19T18:11:14;96884.06;;;11.30;93.59
13434;BME280;6789;47.678;9.158;2023-03-19T18:16:29;96884.06;;;11.30;94.25
13434;BME280;6789;47.678;9.158;2023-03-19T18:21:22;96886.56;;;11.36;93.66
13434;BME280;6789;47.678;9.158;2023-03-19T18:26:14;96891.03;;;11.36;93.87
13434;BME280;6789;47.678;9.158;2023-03-19T18:31:20;96886.78;;;11.35;93.64
13434;BME280;6789;47.678;9.158;2023-03-19T18:36:20;96896.28;;;11.36;94.23
13434;BME280;6789;47.678;9.158;2023-03-19T18:41:19;96904.03;;;11.31;94.44
13434;BME280;6789;47.678;9.158;2023-03-19T18:46:39;96901.25;;;11.26;94.37
13434;BME280;6789;47.678;9.158;2023-03-19T18:51:31;96906.72;;;11.24;95.20
13434;BME280;6789;47.678;9.158;2023-03-19T18:56:28;96917.09;;;11.19;95.21
13434;BME280;6789;47.678;9.158;2023-03-19T19:01:21;96921.88;;;11.11;95.34
13434;BME280;6789;47.678;9.158;2023-03-19T19:06:26;96929.75;;;11.11;95.23
13434;BME280;6789;47.678;9.158;2023-03-19T19:11:39;96928.81;;;11.05;95.10
13434;BME280;6789;47.678;9.158;2023-03-19T19:16:36;96932.09;;;11.01;95.77
13434;BME280;6789;47.678;9.158;2023-03-19T19:21:29;96937.31;;;11.01;95.87
13434;BME280;6789;47.678;9.158;2023-03-19T19:26:27;96946.25;;;11.00;95.53
13434;BME280;6789;47.678;9.158;2023-03-19T19:31:27;96943.63;;;11.00;95.73
13434;BME280;6789;47.678;9.158;2023-03-19T19:36:32;96950.63;;;11.06;95.60
13434;BME280;6789;47.678;9.158;2023-03-19T19:41:26;96959.50;;;11.05;95.81
13434;BME280;6789;47.678;9.158;2023-03-19T19:46:22;96952.66;;;11.04;95.82
13434;BME280;6789;47.678;9.158;2023-03-19T19:51:27;96960.28;;;11.05;95.53
13434;BME280;6789;47.678;9.158;2023-03-19T19:56:24;96962.91;;;11.05;96.30
13434;BME280;6789;47.678;9.158;2023-03-19T20:01:22;96977.06;;;11.04;96.64
13434;BME280;6789;47.678;9.158;2023-03-19T20:06:15;96980.72;;;11.03;95.94
13434;BME280;6789;47.678;9.158;2023-03-19T20:11:29;96986.34;;;11.07;95.90
13434;BME280;6789;47.678;9.158;2023-03-19T20:16:24;96987.72;;;11.09;95.69
13434;BME280;6789;47.678;9.158;2023-03-19T20:21:18;97001.84;;;11.08;95.34
13434;BME280;6789;47.678;9.158;2023-03-19T20:26:19;96997.97;;;11.11;95.28
13434;BME280;6789;47.678;9.158;2023-03-19T20:31:20;97008.47;;;11.11;93.95
13434;BME280;6789;47.678;9.158;2023-03-19T20:36:14;97008.91;;;11.08;93.63
13434;BME280;6789;47.678;9.158;2023-03-19T20:41:20;97005.34;;;11.02;93.88
13434;BME280;6789;47.678;9.158;2023-03-19T20:46:14;97011.13;;;10.93;93.66
13434;BME280;6789;47.678;9.158;2023-03-19T20:51:22;97010.53;;;10.91;93.74
13434;BME280;6789;47.678;9.158;2023-03-19T20:56:19;97017.66;;;10.84;94.30
13434;BME280;6789;47.678;9.158;2023-03-19T21:01:12;97019.00;;;10.75;94.74
13434;BME280;6789;47.678;9.158;2023-03-19T21:06:23;97015.25;;;10.65;95.56
13434;BME280;6789;47.678;9.158;2023-03-19T21:11:19;97010.94;;;10.52;96.17
13434;BME280;6789;47.678;9.158;2023-03-19T21:16:24;97021.34;;;10.41;96.35
13434;BME280;6789;47.678;9.158;2023-03-19T21:21:17;97022.47;;;10.27;97.64
13434;BME280;6789;47.678;9.158;2023-03-19T21:26:18;97013.38;;;10.29;97.94
13434;BME280;6789;47.678;9.158;2023-03-19T21:31:18;97012.38;;;10.30;97.35
13434;BME280;6789;47.678;9.158;2023-03-19T21:36:11;97009.47;;;10.14;98.16
13434;BME280;6789;47.678;9.158;2023-03-19T21:41:28;97011.78;;;10.04;98.42
13434;BME280;6789;47.678;9.158;2023-03-19T21:46:26;97013.59;;;10.03;98.80
13434;BME280;6789;47.678;9.158;2023-03-19T21:51:21;97013.25;;;9.93;99.51
13434;BME280;6789;47.678;9.158;2023-03-19T21:56:26;97005.78;;;9.91;99.58
13434;BME280;6789;47.678;9.158;2023-03-19T22:01:24;97020.56;;;9.85;100.00
13434;BME280;6789;47.678;9.158;2023-03-19T22:06:16;97014.94;;;9.82;99.95
13434;BME280;6789;47.678;9.158;2023-03-19T22:11:26;97005.63;;;9.86;99.53
13434;BME280;6789;47.678;9.158;2023-03-19T22:16:22;97006.09;;;9.83;98.77
13434;BME280;6789;47.678;9.158;2023-03-19T22:21:19;97005.00;;;9.90;98.52
13434;BME280;6789;47.678;9.158;2023-03-19T22:26:38;97009.78;;;9.69;100.00
13434;BME280;6789;47.678;9.158;2023-03-19T22:31:32;97009.78;;;9.69;99.96
13434;BME280;6789;47.678;9.158;2023-03-19T22:36:24;97005.09;;;9.46;100.00
13434;BME280;6789;47.678;9.158;2023-03-19T22:41:32;97016.44;;;9.34;100.00
13434;BME280;6789;47.678;9.158;2023-03-19T22:46:25;97017.69;;;9.25;100.00
13434;BME280;6789;47.678;9.158;2023-03-19T22:51:24;97025.38;;;9.14;100.00
13434;BME280;6789;47.678;9.158;2023-03-19T22:56:19;97020.97;;;9.08;100.00
13434;BME280;6789;47.678;9.158;2023-03-19T23:06:19;97025.28;;;8.89;100.00
13434;BME280;6789;47.678;9.158;2023-03-19T23:11:21;97030.31;;;8.84;100.00
13434;BME280;6789;47.678;9.158;2023-03-19T23:16:22;97029.13;;;8.80;100.00
13434;BME280;6789;47.678;9.158;2023-03-19T23:21:17;97028.34;;;8.73;100.00
13434;BME280;6789;47.678;9.158;2023-03-19T23:26:31;97043.66;;;8.63;100.00
13434;BME280;6789;47.678;9.158;2023-03-19T23:31:25;97046.91;;;8.52;100.00
13434;BME280;6789;47.678;9.158;2023-03-19T23:36:16;97045.28;;;8.52;100.00
13434;BME280;6789;47.678;9.158;2023-03-19T23:41:22;97061.75;;;8.52;100.00
13434;BME280;6789;47.678;9.158;2023-03-19T23:46:15;97052.34;;;8.45;100.00
13434;BME280;6789;47.678;9.158;2023-03-19T23:51:11;97066.00;;;8.34;100.00
13434;BME280;6789;47.678;9.158;2023-03-19T23:56:27;97068.41;;;8.29;100.00
